Terminal Aerodrome Forecast
Issued by NWS Key West, FL

Home | Current Version | Previous Version | Text Only | Print | Product List | Glossary On
Versions: 1 2 3 4 5 6 7 8 9 10 11 12 13 14 15 16 17 18 19 20
000
FTUS42 KKEY 172332
TAFEYW
TAF
KEYW 172332Z 1800/1824 09009KT P6SM VCSH SCT025 OVC100
     FM180200 06007KT P6SM -SHRA SCT015 SCT025 BKN050 PROB30
      1809/1812 2SM RA BKN020
     FM182200 08006KT P6SM SCT020 BKN060=

USA.gov is the U.S. government's official web portal to all federal, state and local government web resources and services.